Westville, IL (61883)

9:08 PM CDT on August 31, 2015 (GMT -0500)
APRSWXNET | | Change Station
CLOSE
Current Station
Personal Weather Station
Location: Westville, IL
Elevation: 662 ft
Nearby Weather Stations

Elev 662 ft 40.05 °N, 87.63 °W | Updated 12 days ago

Mostly Cloudy
Mostly Cloudy
73 °F
Feels Like 73 °F
N
2
Wind Variable Wind from South
Gusts mph

Today
High -- | Low -- °F
--% Chance of Precip.
Yesterday
High -- | Low -- °F
Precip. -- in
6:17 AM 7:23 PM
Waning Gibbous, 92% visible
Pressure 30.04 in
Visibility 7.0 miles
Clouds Clear
Dew Point 70 °F
Humidity 89%
Rainfall in
Snow Depth Not available.
UV 0 out of 12
Pollen 10.30 out of 12
Air Quality Not available.
Flu Activity Not available.
METAR KDNV 010155Z AUTO 21004KT 7SM CLR 22/21 A3004 RMK AO2 T02190206
Pressure 30.04 in
Visibility 7.0 miles
Clouds Clear
Dew Point 70 °F
Humidity 89%
Rainfall in
Snow Depth Not available.
UV 0 out of 12
Pollen 10.30 out of 12
Air Quality Not available.
Flu Activity Not available.
METAR KDNV 010155Z AUTO 21004KT 7SM CLR 22/21 A3004 RMK AO2 T02190206

10-Day Weather Forecast

×

Almanac

Astronomy

Aug. 31, 2015 Rise Set
Actual Time
Civil Twilight
Nautical Twilight
Astronomical Twilight
Moon
Length of Visible Light
Length of Day
Tomorrow will be .
, % of the Moon is Illuminated

Today's Extremes

State Highs State Lows

Community

WunderPhotos

Upload Photos

1,851,441 photos uploaded!

WunderBlogs® & News

Nearby

Air Quality

  Air Quality AQ Index Pollutant
Not available.

Snow Depth

Station Depth Elevation

Earthquake Activity

City Distance Mag. Time & Date
Minimum magnitude displayed is 2.5.

Coastal Water Temperatures

Place Temperature

Stations

Nearby Weather Stations

Station Location Temp. Windchill Dew Point Humidity Wind Precip. Elev Updated Type